Terminal Aerodrome Forecast
Issued by NWS

Home | Current Version | Previous Version | Text Only | Print | Product List | Glossary On
Versions: 1 2 3 4 5 6 7 8 9 10 11 12 13 14 15
000
FTUS46 KMTR 290500
TAFSTS
TAF
KSTS 290538Z 2906/3006 15004KT P6SM OVC003
     FM290900 VRB03KT 3SM BR OVC002
     FM291200 00000KT 1/2SM FG VV002
     FM291700 VRB03KT P6SM SKC
     FM292100 17009KT P6SM SKC
     FM300500 VRB03KT P6SM BKN005=

USA.gov is the U.S. government's official web portal to all federal, state and local government web resources and services.